Athens, PA

5:41 PM EST on December 19, 2014 (GMT -0500)
Walker Hill Rd | Change Station
CLOSE
Current Station
Personal Weather Station
Location: Waverly, NY
Elevation: 1358 ft
Nearby Weather Stations

Elev 1358 ft 42.04 °N, 76.54 °W | Updated 0 second ago

Overcast
Overcast
26.8 °F
Feels Like 27 °F
N
0.0
Wind Variable Wind from SSE
Gusts 0.0 mph

Today
High -- | Low -- °F
--% Chance of Precip.
Yesterday
High -- | Low -- °F
Precip. -- in
7:29 AM 4:36 PM
Waning Crescent, 6% visible
Pressure 30.15 in
Visibility 10.0 miles
Clouds Scattered Clouds 2500 ft
Overcast 3700 ft
Windchill 27 °F
Dew Point 21 °F
Humidity 78%
Rainfall 0.00 in
Snow Depth Not available.
UV 0.0 out of 12
Pollen .10 out of 12
Air Quality Not available.
Flu Activity Not available.
SPECI KELM 192200Z 31005KT 10SM SCT025 OVC037 M02/M06 A3015 RMK AO2 T10171061

More Conditions Fewer Conditions

Pressure 30.15 in
Visibility 10.0 miles
Clouds Scattered Clouds 2500 ft
Overcast 3700 ft
Windchill 27 °F
Dew Point 21 °F
Humidity 78%
Rainfall 0.00 in
Snow Depth Not available.
UV 0.0 out of 12
Pollen .10 out of 12
Air Quality Not available.
Flu Activity Not available.
SPECI KELM 192200Z 31005KT 10SM SCT025 OVC037 M02/M06 A3015 RMK AO2 T10171061

More Conditions Fewer Conditions

10-Day Weather Forecast

Almanac

Astronomy

Dec. 19, 2014 Rise Set
Actual Time
Civil Twilight
Nautical Twilight
Astronomical Twilight
Moon
Length of Visible Light
Length of Day
Tomorrow will be .
, % of the Moon is Illuminated

Today's Extremes

State Highs State Lows

Community

WunderPhotos

Upload Photos

1,779,071 photos uploaded!

WunderBlogs® & News

Nearby

Air Quality

  Air Quality AQ Index Pollutant
Not available.

Snow Depth

Station Depth Elevation

Earthquake Activity

City Distance Mag. Time & Date
Minimum magnitude displayed is 2.5.

Coastal Water Temperatures

Place Temperature

Nearby Weather Stations